Time;durP1;ratioP1;P1;durP2;ratioP2;P2;SDS_P1;SDS_P2;PMS_P1;PMS_P2;Temp;Humidity;BMP_temperature;BMP_pressure;BME280_temperature;BME280_humidity;BME280_pressure;Samples;Min_cycle;Max_cycle;Signal;HPM_P1;HPM_P2
2022/03/02 00:01:48;;;;;;;59.55;33.15;;;;;;;4.38;100.00;102791.16;4946505;28;20123;-73
2022/03/02 00:04:14;;;;;;;51.38;32.50;;;;;;;4.40;100.00;102789.22;4963322;28;20044;-73
2022/03/02 00:06:39;;;;;;;50.63;31.27;;;;;;;4.36;100.00;102785.09;4975980;28;20050;-74
2022/03/02 00:09:05;;;;;;;53.83;31.73;;;;;;;4.40;100.00;102786.56;4972154;28;20107;-73
2022/03/02 00:11:30;;;;;;;51.55;31.63;;;;;;;4.37;100.00;102781.47;4980839;28;20136;-73
2022/03/02 00:13:56;;;;;;;53.38;33.58;;;;;;;4.46;100.00;102782.53;4964781;28;20107;-73
2022/03/02 00:16:23;;;;;;;52.20;31.70;;;;;;;4.40;100.00;102780.38;4980228;28;20033;-73
2022/03/02 00:18:49;;;;;;;57.08;33.17;;;;;;;4.31;100.00;102779.28;4973885;28;20044;-73
2022/03/02 00:21:15;;;;;;;59.42;33.38;;;;;;;4.25;100.00;102772.63;4941660;28;20187;-73
2022/03/02 00:23:40;;;;;;;56.80;33.28;;;;;;;4.23;100.00;102774.56;4962071;28;21201;-73
2022/03/02 00:26:06;;;;;;;53.05;33.65;;;;;;;4.24;100.00;102780.75;4951523;28;20129;-73
2022/03/02 00:28:31;;;;;;;58.20;34.70;;;;;;;4.20;100.00;102776.63;4950033;28;20074;-73
2022/03/02 00:30:57;;;;;;;57.05;33.45;;;;;;;4.15;100.00;102776.19;4975555;28;20042;-73
2022/03/02 00:33:22;;;;;;;63.28;35.05;;;;;;;4.12;100.00;102771.94;4969896;28;20073;-72
2022/03/02 00:35:48;;;;;;;58.35;35.20;;;;;;;4.11;100.00;102772.03;4979508;28;20068;-72
2022/03/02 00:38:14;;;;;;;59.50;36.10;;;;;;;4.05;100.00;102766.22;4944390;28;20152;-72
2022/03/02 00:40:41;;;;;;;57.53;35.63;;;;;;;4.14;100.00;102777.13;4981204;28;20038;-72
2022/03/02 00:43:08;;;;;;;60.38;37.00;;;;;;;4.14;100.00;102770.00;4959138;28;20046;-72
2022/03/02 00:45:33;;;;;;;62.50;35.70;;;;;;;4.12;100.00;102765.75;4970832;28;20140;-72
2022/03/02 00:48:00;;;;;;;62.22;36.50;;;;;;;4.13;100.00;102759.44;4961494;28;20462;-72
2022/03/02 00:50:26;;;;;;;59.20;35.17;;;;;;;4.12;100.00;102755.09;4947530;28;20058;-72
2022/03/02 00:52:51;;;;;;;64.60;37.22;;;;;;;4.10;100.00;102762.34;4946458;28;20064;-73
2022/03/02 00:55:17;;;;;;;59.28;37.35;;;;;;;4.12;100.00;102763.09;4934281;28;20053;-73
2022/03/02 00:57:43;;;;;;;58.03;35.13;;;;;;;4.15;100.00;102757.50;4966973;28;20076;-73
2022/03/02 01:00:09;;;;;;;59.42;36.28;;;;;;;4.12;100.00;102755.09;4977123;28;20541;-73
2022/03/02 01:02:35;;;;;;;62.45;36.38;;;;;;;4.07;100.00;102748.31;4964978;28;20054;-73
2022/03/02 01:05:00;;;;;;;60.90;36.88;;;;;;;4.04;100.00;102753.88;4968242;28;20712;-73
2022/03/02 01:07:26;;;;;;;65.53;38.25;;;;;;;4.01;100.00;102756.78;4965792;28;20168;-73
2022/03/02 01:09:51;;;;;;;62.60;37.72;;;;;;;4.02;100.00;102755.81;4981327;28;20024;-73
2022/03/02 01:12:17;;;;;;;67.40;38.35;;;;;;;4.12;100.00;102755.94;4982114;28;20378;-72
2022/03/02 01:14:42;;;;;;;58.42;36.30;;;;;;;4.10;100.00;102757.00;4936345;28;20049;-73
2022/03/02 01:17:08;;;;;;;55.35;35.33;;;;;;;4.14;100.00;102755.78;4966576;28;20505;-73
2022/03/02 01:19:33;;;;;;;59.20;36.25;;;;;;;4.25;100.00;102758.47;4963113;28;20045;-73
2022/03/02 01:21:59;;;;;;;63.85;36.85;;;;;;;4.15;100.00;102755.69;4961277;28;20029;-73
2022/03/02 01:24:24;;;;;;;66.70;38.10;;;;;;;4.05;100.00;102755.56;4978810;28;20076;-73
2022/03/02 01:26:50;;;;;;;64.07;37.25;;;;;;;3.99;100.00;102745.38;4951296;28;20550;-73
2022/03/02 01:29:15;;;;;;;64.45;37.95;;;;;;;3.99;100.00;102745.38;4967745;28;20578;-73
2022/03/02 01:31:41;;;;;;;68.13;39.30;;;;;;;4.06;100.00;102735.91;4946305;28;20045;-73
2022/03/02 01:34:06;;;;;;;63.20;37.53;;;;;;;4.12;100.00;102737.25;4962003;28;20034;-73
2022/03/02 01:36:32;;;;;;;66.45;38.28;;;;;;;4.11;100.00;102748.91;4967299;28;25045;-73
2022/03/02 01:38:57;;;;;;;61.80;36.60;;;;;;;4.13;100.00;102736.28;4947282;28;20511;-73
2022/03/02 01:41:25;;;;;;;59.65;39.03;;;;;;;4.10;100.00;102730.34;4968013;28;20044;-73
2022/03/02 01:43:52;;;;;;;62.15;39.50;;;;;;;4.04;100.00;102732.53;4955355;28;20046;-73
2022/03/02 01:46:18;;;;;;;62.70;38.83;;;;;;;4.02;100.00;102722.97;4969591;28;20029;-73
2022/03/02 01:48:44;;;;;;;70.22;40.80;;;;;;;3.96;100.00;102718.97;4971293;28;20135;-73
2022/03/02 01:51:10;;;;;;;65.03;39.25;;;;;;;3.99;100.00;102724.06;4951851;28;20492;-73
2022/03/02 01:53:35;;;;;;;69.78;40.05;;;;;;;3.97;100.00;102726.00;4980450;28;20049;-73
2022/03/02 01:56:01;;;;;;;64.45;38.85;;;;;;;3.97;100.00;102714.50;4949386;28;20042;-73
2022/03/02 01:58:28;;;;;;;65.38;38.53;;;;;;;4.10;100.00;102720.50;4980922;28;20049;-73
2022/03/02 02:00:53;;;;;;;64.20;39.25;;;;;;;4.01;100.00;102716.78;4946355;28;20149;-73
2022/03/02 02:03:19;;;;;;;72.50;41.17;;;;;;;3.95;100.00;102716.44;4947434;28;20172;-72
2022/03/02 02:05:45;;;;;;;66.13;40.47;;;;;;;3.89;100.00;102712.44;4966179;28;20116;-72
2022/03/02 02:08:11;;;;;;;69.13;39.83;;;;;;;3.95;100.00;102711.94;4934451;28;20061;-72
2022/03/02 02:10:37;;;;;;;69.45;40.78;;;;;;;4.06;100.00;102711.06;4971292;28;20037;-72
2022/03/02 02:13:03;;;;;;;59.15;37.70;;;;;;;3.99;100.00;102701.88;4984314;28;20133;-72
2022/03/02 02:15:28;;;;;;;65.75;40.83;;;;;;;4.07;100.00;102700.31;4966212;28;20096;-72
2022/03/02 02:17:53;;;;;;;62.28;39.40;;;;;;;3.97;100.00;102702.00;4983820;28;20519;-72
2022/03/02 02:20:19;;;;;;;71.95;41.35;;;;;;;3.88;100.00;102692.09;4965916;28;20080;-73
2022/03/02 02:22:46;;;;;;;72.30;39.88;;;;;;;3.91;100.00;102699.84;4983072;28;20147;-72
2022/03/02 02:25:13;;;;;;;73.93;40.58;;;;;;;3.89;100.00;102699.09;4951101;28;20041;-72
2022/03/02 02:27:38;;;;;;;70.15;40.47;;;;;;;3.84;100.00;102703.97;4966713;28;20050;-72
2022/03/02 02:30:05;;;;;;;60.60;38.17;;;;;;;3.75;100.00;102692.22;4969837;28;20030;-72
2022/03/02 02:32:31;;;;;;;70.05;41.90;;;;;;;3.75;100.00;102694.03;4952501;28;20058;-72
2022/03/02 02:34:57;;;;;;;69.57;42.45;;;;;;;3.73;100.00;102690.66;4969175;28;20679;-73
2022/03/02 02:37:25;;;;;;;69.13;39.85;;;;;;;3.65;100.00;102688.59;4980295;28;20037;-73
2022/03/02 02:39:55;;;;;;;72.93;39.88;;;;;;;3.68;100.00;102688.34;4969700;28;20053;-72
2022/03/02 02:42:20;;;;;;;67.90;40.50;;;;;;;3.63;100.00;102689.69;4964851;28;20093;-72
2022/03/02 02:44:46;;;;;;;73.05;41.35;;;;;;;3.56;100.00;102684.00;4965015;28;20056;-73
2022/03/02 02:47:11;;;;;;;70.30;40.50;;;;;;;3.52;100.00;102675.41;4981849;28;20049;-73
2022/03/02 02:49:37;;;;;;;69.82;42.72;;;;;;;3.35;100.00;102686.53;4976316;28;20037;-73
2022/03/02 02:52:03;;;;;;;68.80;41.00;;;;;;;3.26;100.00;102681.91;4940712;28;20699;-73
2022/03/02 02:54:28;;;;;;;74.47;43.75;;;;;;;3.17;100.00;102672.84;4983717;28;20061;-73
2022/03/02 02:56:53;;;;;;;77.07;44.22;;;;;;;2.98;100.00;102673.41;4937194;28;20058;-73
2022/03/02 02:59:19;;;;;;;81.68;43.78;;;;;;;2.84;100.00;102670.97;4984531;28;20045;-73
2022/03/02 03:01:44;;;;;;;78.55;44.75;;;;;;;2.72;100.00;102666.59;4966460;28;20033;-73
2022/03/02 03:04:12;;;;;;;84.53;45.90;;;;;;;2.56;100.00;102670.44;4971762;28;21389;-73
2022/03/02 03:06:37;;;;;;;81.95;47.00;;;;;;;2.40;100.00;102672.53;4982711;28;20523;-73
2022/03/02 03:09:03;;;;;;;79.78;46.70;;;;;;;2.26;100.00;102670.06;4968038;28;20046;-73
2022/03/02 03:11:28;;;;;;;82.93;45.83;;;;;;;2.11;100.00;102666.72;4977988;28;20509;-73
2022/03/02 03:13:53;;;;;;;82.70;46.47;;;;;;;2.01;100.00;102665.69;4975568;28;20029;-73
2022/03/02 03:16:19;;;;;;;86.95;48.47;;;;;;;1.88;100.00;102663.06;4973124;28;20060;-73
2022/03/02 03:18:44;;;;;;;90.38;48.90;;;;;;;1.78;100.00;102667.34;4966185;28;21108;-74
2022/03/02 03:21:10;;;;;;;99.45;53.30;;;;;;;1.70;100.00;102665.25;4966007;28;21055;-73
2022/03/02 03:23:35;;;;;;;99.32;50.58;;;;;;;1.61;100.00;102666.75;4982152;28;21008;-73
2022/03/02 03:26:01;;;;;;;94.13;51.42;;;;;;;1.57;100.00;102667.94;4977555;28;20108;-73
2022/03/02 03:28:27;;;;;;;97.18;51.80;;;;;;;1.49;100.00;102677.41;4972359;28;20045;-73
2022/03/02 03:30:52;;;;;;;105.72;54.80;;;;;;;1.43;100.00;102676.03;4982307;28;20515;-73
2022/03/02 03:33:18;;;;;;;103.68;53.90;;;;;;;1.43;100.00;102678.69;4964001;28;20073;-73
2022/03/02 03:35:44;;;;;;;104.05;53.47;;;;;;;1.36;100.00;102674.75;4978995;28;20401;-73
2022/03/02 03:38:09;;;;;;;110.32;55.45;;;;;;;1.30;100.00;102683.16;4961473;28;20045;-73
2022/03/02 03:40:35;;;;;;;110.53;57.15;;;;;;;1.31;100.00;102682.22;4972209;28;20517;-73
2022/03/02 03:43:00;;;;;;;112.60;55.75;;;;;;;1.28;100.00;102671.81;4984630;28;20168;-73
2022/03/02 03:45:26;;;;;;;114.55;56.55;;;;;;;1.26;100.00;102674.53;4965754;28;20860;-72
2022/03/02 03:47:53;;;;;;;121.82;57.33;;;;;;;1.24;100.00;102675.63;4981676;28;20286;-72
2022/03/02 03:50:19;;;;;;;109.95;56.15;;;;;;;1.23;100.00;102669.47;4957331;28;20049;-72
2022/03/02 03:52:45;;;;;;;117.70;58.85;;;;;;;1.22;100.00;102664.25;4970130;28;20136;-72
2022/03/02 03:55:12;;;;;;;126.60;59.13;;;;;;;1.16;100.00;102666.41;4983064;28;20064;-72
2022/03/02 03:57:37;;;;;;;106.13;55.20;;;;;;;1.10;100.00;102664.16;4931674;28;20097;-72
2022/03/02 04:00:06;;;;;;;111.40;55.55;;;;;;;1.06;100.00;102673.31;4979372;28;20052;-72
2022/03/02 04:02:32;;;;;;;118.20;59.35;;;;;;;0.99;100.00;102666.72;4975313;28;20061;-72
2022/03/02 04:04:58;;;;;;;111.28;57.40;;;;;;;0.94;100.00;102664.34;4953965;28;20049;-72
2022/03/02 04:07:24;;;;;;;123.07;59.40;;;;;;;0.86;100.00;102663.19;4982055;28;20040;-73
2022/03/02 04:09:49;;;;;;;120.70;60.55;;;;;;;0.82;100.00;102669.66;4951385;28;20050;-73
2022/03/02 04:12:17;;;;;;;134.63;63.15;;;;;;;0.90;100.00;102657.56;4961653;28;20029;-73
2022/03/02 04:14:42;;;;;;;123.45;59.60;;;;;;;0.87;100.00;102657.78;4975543;28;20045;-73
2022/03/02 04:17:08;;;;;;;121.65;59.58;;;;;;;0.93;100.00;102656.50;4953316;28;21018;-73
2022/03/02 04:19:33;;;;;;;120.60;60.28;;;;;;;0.98;100.00;102651.72;4981198;28;20043;-73
2022/03/02 04:21:59;;;;;;;123.72;60.38;;;;;;;0.91;100.00;102642.50;4967117;28;20187;-72
2022/03/02 04:24:24;;;;;;;129.77;61.85;;;;;;;0.95;100.00;102646.66;4982316;28;20044;-73
2022/03/02 04:26:49;;;;;;;126.93;61.70;;;;;;;0.94;100.00;102652.91;4971103;28;21097;-72
2022/03/02 04:29:15;;;;;;;127.63;61.10;;;;;;;0.89;100.00;102641.78;4978095;28;20036;-73
2022/03/02 04:31:40;;;;;;;134.75;60.33;;;;;;;0.84;100.00;102641.22;4981783;28;20156;-73
2022/03/02 04:34:06;;;;;;;130.57;60.72;;;;;;;0.79;100.00;102641.53;4966170;28;20064;-72
2022/03/02 04:36:31;;;;;;;131.80;61.35;;;;;;;0.74;100.00;102637.50;4982639;28;20029;-73
2022/03/02 04:38:57;;;;;;;131.00;63.88;;;;;;;0.69;100.00;102630.69;4955990;28;21183;-73
2022/03/02 04:41:23;;;;;;;132.70;62.72;;;;;;;0.61;100.00;102640.16;4969086;28;20046;-72
2022/03/02 04:43:48;;;;;;;133.32;62.22;;;;;;;0.54;100.00;102644.16;4968326;28;20559;-72
2022/03/02 04:46:14;;;;;;;139.35;63.65;;;;;;;0.45;100.00;102624.41;4951877;28;20046;-72
2022/03/02 04:48:39;;;;;;;123.97;61.60;;;;;;;0.36;100.00;102631.19;4979657;28;20064;-72
2022/03/02 04:51:05;;;;;;;129.88;61.88;;;;;;;0.30;100.00;102630.75;4972779;28;20115;-72
2022/03/02 04:53:30;;;;;;;128.25;61.42;;;;;;;0.29;100.00;102629.06;4970361;28;20100;-72
2022/03/02 04:55:56;;;;;;;129.52;60.35;;;;;;;0.19;100.00;102626.16;4977563;28;20584;-72
2022/03/02 04:58:21;;;;;;;134.18;62.13;;;;;;;0.18;100.00;102627.13;4962521;28;20046;-72
2022/03/02 05:00:47;;;;;;;135.38;64.00;;;;;;;0.11;100.00;102615.22;4967559;28;20041;-72
2022/03/02 05:03:13;;;;;;;134.38;62.25;;;;;;;0.12;100.00;102617.75;4971964;28;20041;-72
2022/03/02 05:05:38;;;;;;;135.88;63.40;;;;;;;0.09;100.00;102617.97;4978047;28;20038;-72
2022/03/02 05:08:06;;;;;;;132.75;61.38;;;;;;;0.00;100.00;102613.28;4979294;28;20045;-72
2022/03/02 05:10:32;;;;;;;132.77;62.30;;;;;;;-0.09;100.00;102613.88;4944326;28;20068;-72
2022/03/02 05:12:58;;;;;;;127.93;60.15;;;;;;;-0.05;100.00;102620.66;4980292;28;20026;-72
2022/03/02 05:15:24;;;;;;;136.88;61.53;;;;;;;-0.02;100.00;102623.97;4965970;28;20049;-71
2022/03/02 05:17:50;;;;;;;143.80;63.05;;;;;;;0.03;100.00;102622.81;4965949;28;20029;-71
2022/03/02 05:20:16;;;;;;;139.32;62.20;;;;;;;-0.07;100.00;102622.56;4981858;28;20120;-72
2022/03/02 05:22:42;;;;;;;152.02;67.05;;;;;;;0.03;100.00;102622.81;4946285;28;20947;-72
2022/03/02 05:25:08;;;;;;;155.15;68.55;;;;;;;0.02;100.00;102614.00;4968440;28;20029;-72
2022/03/02 05:27:35;;;;;;;151.10;67.28;;;;;;;0.03;100.00;102618.34;4935431;28;20054;-72
2022/03/02 05:30:01;;;;;;;154.05;67.60;;;;;;;0.00;100.00;102610.63;4962040;28;20041;-72
2022/03/02 05:32:27;;;;;;;153.38;71.72;;;;;;;0.04;100.00;102609.47;4970046;28;20127;-73
2022/03/02 05:34:53;;;;;;;169.98;73.18;;;;;;;0.04;100.00;102613.94;4970052;28;20050;-71
2022/03/02 05:37:19;;;;;;;156.63;73.32;;;;;;;0.07;100.00;102603.97;4969779;28;20083;-71
2022/03/02 05:39:44;;;;;;;175.52;77.45;;;;;;;0.10;100.00;102603.75;4970595;28;20850;-71
2022/03/02 05:42:10;;;;;;;158.85;74.50;;;;;;;0.12;100.00;102607.16;4975747;28;20179;-71
2022/03/02 05:44:35;;;;;;;164.57;73.43;;;;;;;0.05;100.00;102595.28;4985616;28;20389;-71
2022/03/02 05:47:01;;;;;;;164.65;70.63;;;;;;;0.03;100.00;102597.16;4952608;28;20057;-71
2022/03/02 05:49:26;;;;;;;173.32;72.55;;;;;;;0.13;100.00;102602.72;4985124;28;20037;-72
2022/03/02 05:51:52;;;;;;;160.18;72.32;;;;;;;0.04;100.00;102608.63;4954563;28;20053;-71
2022/03/02 05:54:18;;;;;;;150.82;69.55;;;;;;;-0.01;100.00;102616.88;4973864;28;20092;-72
2022/03/02 05:56:43;;;;;;;159.13;70.72;;;;;;;0.03;100.00;102610.41;4948713;28;20038;-72
2022/03/02 05:59:11;;;;;;;171.02;73.10;;;;;;;0.09;100.00;102612.66;4949776;28;20057;-72
2022/03/02 06:01:37;;;;;;;160.68;72.95;;;;;;;0.03;100.00;102612.22;4966585;28;20073;-72
2022/03/02 06:04:03;;;;;;;159.10;72.05;;;;;;;0.01;100.00;102612.31;4940650;28;20053;-72
2022/03/02 06:06:31;;;;;;;154.43;71.95;;;;;;;0.04;100.00;102619.22;4967274;28;20088;-71
2022/03/02 06:08:56;;;;;;;148.27;69.47;;;;;;;0.01;100.00;102608.84;4964170;28;23898;-71
2022/03/02 06:11:22;;;;;;;153.40;70.43;;;;;;;0.03;100.00;102618.34;4952052;28;20060;-71
2022/03/02 06:13:48;;;;;;;147.10;69.00;;;;;;;0.05;100.00;102616.47;4950931;28;20390;-72
2022/03/02 06:16:14;;;;;;;140.18;67.88;;;;;;;0.13;100.00;102627.41;4930243;28;20224;-72
2022/03/02 06:18:40;;;;;;;143.68;68.05;;;;;;;0.06;100.00;102625.25;4966826;28;20083;-72
2022/03/02 06:21:06;;;;;;;155.52;68.15;;;;;;;0.06;100.00;102626.09;4951042;28;20022;-72
2022/03/02 06:23:32;;;;;;;151.48;70.07;;;;;;;-0.06;100.00;102640.16;4956840;28;20089;-72
2022/03/02 06:25:58;;;;;;;147.35;70.82;;;;;;;-0.09;100.00;102640.38;4951408;28;20040;-72
2022/03/02 06:28:24;;;;;;;154.93;73.50;;;;;;;-0.04;100.00;102638.25;4949260;28;20069;-72
2022/03/02 06:30:50;;;;;;;155.27;72.82;;;;;;;0.01;100.00;102644.13;4932579;28;20121;-71
2022/03/02 06:33:21;;;;;;;165.02;77.70;;;;;;;0.07;100.00;102645.50;4946507;28;20174;-71
2022/03/02 06:35:48;;;;;;;165.20;75.45;;;;;;;0.13;100.00;102639.81;4946018;28;20050;-72
2022/03/02 06:38:13;;;;;;;165.43;77.60;;;;;;;0.29;100.00;102648.47;4939453;28;20038;-72
2022/03/02 06:40:41;;;;;;;172.95;78.40;;;;;;;0.33;100.00;102646.44;4949669;28;20054;-72
2022/03/02 06:43:09;;;;;;;174.10;78.15;;;;;;;0.46;100.00;102652.66;4963362;28;20117;-72
2022/03/02 06:45:38;;;;;;;166.93;77.50;;;;;;;0.64;100.00;102640.78;4940623;28;20073;-72
2022/03/02 06:48:11;;;;;;;170.95;77.68;;;;;;;0.82;100.00;102637.84;4952583;28;20148;-72
2022/03/02 06:50:39;;;;;;;160.17;74.83;;;;;;;1.04;100.00;102643.34;4960574;28;20029;-72
2022/03/02 06:53:05;;;;;;;149.18;70.75;;;;;;;1.18;100.00;102645.88;4901060;28;24160;-72
2022/03/02 06:55:30;;;;;;;144.85;72.38;;;;;;;1.34;100.00;102647.47;4930540;28;20134;-72
2022/03/02 06:57:59;;;;;;;146.95;67.22;;;;;;;1.39;100.00;102642.69;4947730;28;20050;-72
2022/03/02 07:00:25;;;;;;;127.05;65.28;;;;;;;1.57;100.00;102646.69;4967746;28;21182;-72
2022/03/02 07:03:11;;;;;;;125.38;63.50;;;;;;;1.72;100.00;102651.84;4965023;28;20063;-72
2022/03/02 07:05:38;;;;;;;117.47;60.13;;;;;;;1.75;100.00;102647.16;4953749;28;20072;-72
2022/03/02 07:08:05;;;;;;;122.70;60.67;;;;;;;1.76;100.00;102650.69;4946743;28;20036;-72
2022/03/02 07:10:35;;;;;;;110.07;56.80;;;;;;;1.87;100.00;102650.75;4928798;28;20060;-73
2022/03/02 07:13:02;;;;;;;100.32;56.72;;;;;;;2.18;100.00;102645.81;4963241;28;20053;-72
2022/03/02 07:15:29;;;;;;;101.20;55.22;;;;;;;2.45;100.00;102642.91;4928406;28;20076;-72
2022/03/02 07:17:54;;;;;;;88.57;50.67;;;;;;;2.65;100.00;102639.59;4953072;28;20497;-72
2022/03/02 07:20:20;;;;;;;82.53;50.33;;;;;;;2.81;100.00;102644.59;4960081;28;20096;-72
2022/03/02 07:22:53;;;;;;;80.80;47.53;;;;;;;3.18;100.00;102647.06;4928897;28;20049;-72
2022/03/02 07:25:29;;;;;;;79.78;49.22;;;;;;;3.53;100.00;102653.09;4966722;28;20127;-73
2022/03/02 07:27:56;;;;;;;78.63;46.50;;;;;;;3.72;100.00;102657.81;4954455;28;20041;-73
2022/03/02 07:30:23;;;;;;;71.60;43.13;;;;;;;3.88;100.00;102653.91;4951887;28;20045;-73
2022/03/02 07:32:54;;;;;;;83.28;45.72;;;;;;;3.71;100.00;102656.13;4962758;28;20038;-73
2022/03/02 07:35:19;;;;;;;73.25;42.75;;;;;;;3.65;100.00;102655.75;4955484;28;20053;-73
2022/03/02 07:37:45;;;;;;;81.95;44.90;;;;;;;3.55;100.00;102656.50;4960274;28;20390;-72
2022/03/02 07:40:12;;;;;;;72.95;44.40;;;;;;;3.70;100.00;102661.56;4969458;28;20049;-72
2022/03/02 07:42:37;;;;;;;77.15;43.17;;;;;;;3.92;100.00;102655.34;4959748;28;20243;-73
2022/03/02 07:45:04;;;;;;;71.68;43.00;;;;;;;4.23;100.00;102645.69;4961621;28;20097;-72
2022/03/02 07:47:29;;;;;;;75.82;44.92;;;;;;;4.80;100.00;102647.09;4949099;28;20050;-73
2022/03/02 07:49:55;;;;;;;68.70;39.47;;;;;;;5.35;100.00;102650.34;4959025;28;20414;-73
2022/03/02 07:52:25;;;;;;;71.20;42.20;;;;;;;5.95;100.00;102653.94;4947961;28;20046;-71
2022/03/02 07:54:54;;;;;;;67.07;39.88;;;;;;;5.92;100.00;102651.53;4959045;28;20054;-72
2022/03/02 07:57:21;;;;;;;66.75;41.50;;;;;;;6.04;100.00;102651.38;4964206;28;20073;-72
2022/03/02 07:59:46;;;;;;;63.63;40.70;;;;;;;6.27;100.00;102647.47;4945412;28;20054;-72
2022/03/02 08:02:13;;;;;;;65.18;38.92;;;;;;;6.59;100.00;102649.03;4971284;28;20022;-72
2022/03/02 08:04:40;;;;;;;57.35;37.50;;;;;;;6.58;100.00;102644.66;4961715;28;21290;-72
2022/03/02 08:07:06;;;;;;;65.30;39.58;;;;;;;6.49;100.00;102645.50;4962100;28;20145;-73
2022/03/02 08:09:32;;;;;;;64.68;40.35;;;;;;;6.30;100.00;102647.19;4954672;28;20646;-73
2022/03/02 08:11:59;;;;;;;60.85;37.92;;;;;;;6.49;100.00;102650.84;4946106;28;20658;-73
2022/03/02 08:14:25;;;;;;;57.80;38.90;;;;;;;6.84;100.00;102651.09;4960668;28;20034;-73
2022/03/02 08:16:54;;;;;;;55.55;36.00;;;;;;;7.18;100.00;102647.91;4946762;28;20038;-72
2022/03/02 08:19:20;;;;;;;62.72;36.20;;;;;;;7.25;100.00;102662.41;4955790;28;20033;-73
2022/03/02 08:21:51;;;;;;;56.08;35.72;;;;;;;6.81;100.00;102664.78;4959669;28;20079;-73
2022/03/02 08:24:17;;;;;;;61.88;37.72;;;;;;;6.83;100.00;102662.81;4948164;28;20053;-73
2022/03/02 08:26:48;;;;;;;57.92;37.10;;;;;;;6.84;100.00;102661.81;4966316;28;20038;-72
2022/03/02 08:29:14;;;;;;;62.25;35.83;;;;;;;7.07;100.00;102653.44;4942552;28;20129;-74
2022/03/02 08:31:42;;;;;;;61.85;35.67;;;;;;;6.99;100.00;102648.81;4959156;28;20038;-71
2022/03/02 08:34:08;;;;;;;54.20;36.60;;;;;;;7.24;100.00;102641.97;4960176;28;20033;-71
2022/03/02 08:36:34;;;;;;;59.78;35.28;;;;;;;7.11;100.00;102649.47;4948224;28;20175;-71
2022/03/02 08:39:08;;;;;;;56.42;35.92;;;;;;;7.34;100.00;102648.13;4957055;28;20034;-72
2022/03/02 08:41:34;;;;;;;54.35;35.35;;;;;;;7.89;100.00;102650.78;4946255;28;20053;-72
2022/03/02 08:44:00;;;;;;;57.38;36.78;;;;;;;7.72;100.00;102638.22;4957268;28;20517;-72
2022/03/02 08:46:26;;;;;;;61.67;36.88;;;;;;;7.93;100.00;102642.44;4955145;28;20050;-73
2022/03/02 08:48:52;;;;;;;55.05;34.35;;;;;;;8.19;100.00;102638.03;4952743;28;20545;-73
2022/03/02 08:51:23;;;;;;;50.63;32.80;;;;;;;8.34;100.00;102636.47;4959574;28;20032;-73
2022/03/02 08:53:49;;;;;;;50.53;32.70;;;;;;;8.17;100.00;102649.91;4944902;28;20089;-73
2022/03/02 08:56:15;;;;;;;51.88;35.13;;;;;;;8.00;100.00;102638.16;4976232;28;20080;-73
2022/03/02 08:58:41;;;;;;;49.95;33.75;;;;;;;8.21;100.00;102646.75;4952604;28;20046;-73
2022/03/02 09:01:06;;;;;;;51.00;33.38;;;;;;;8.54;90.20;102641.72;4948615;28;20109;-72
2022/03/02 09:03:34;;;;;;;50.67;32.60;;;;;;;8.57;90.31;102636.88;4962617;28;20026;-72
2022/03/02 09:06:01;;;;;;;54.08;34.03;;;;;;;8.31;97.10;102641.31;4941555;28;20046;-71
2022/03/02 09:08:27;;;;;;;50.75;32.78;;;;;;;7.85;100.00;102646.72;4964166;28;20097;-71
2022/03/02 09:10:52;;;;;;;53.65;33.28;;;;;;;8.01;100.00;102645.22;4944345;28;20042;-71
2022/03/02 09:13:21;;;;;;;55.88;34.17;;;;;;;8.24;95.25;102643.78;4965587;28;20081;-71
2022/03/02 09:15:46;;;;;;;51.92;34.17;;;;;;;8.28;97.83;102636.25;4961086;28;20116;-71
2022/03/02 09:18:12;;;;;;;46.13;32.75;;;;;;;8.65;93.31;102637.94;4947031;28;20586;-71
2022/03/02 09:20:40;;;;;;;48.20;32.97;;;;;;;8.69;92.78;102634.78;4960933;28;20038;-71
2022/03/02 09:23:06;;;;;;;46.78;32.05;;;;;;;9.07;88.35;102638.06;4949507;28;20128;-71
2022/03/02 09:25:32;;;;;;;53.05;32.70;;;;;;;9.28;80.65;102633.13;4948403;28;20561;-72
2022/03/02 09:27:58;;;;;;;49.08;33.65;;;;;;;8.99;88.43;102629.97;4975676;28;20038;-72
2022/03/02 09:30:24;;;;;;;48.72;31.65;;;;;;;8.81;92.04;102620.09;4945629;28;20159;-72
2022/03/02 09:32:52;;;;;;;43.30;29.90;;;;;;;9.33;82.89;102628.09;4960507;28;20039;-72
2022/03/02 09:35:20;;;;;;;45.50;31.85;;;;;;;9.18;74.77;102624.34;4941114;28;22691;-72
2022/03/02 09:37:49;;;;;;;45.95;31.17;;;;;;;8.79;84.47;102619.41;4960292;28;20038;-72
2022/03/02 09:40:32;;;;;;;45.75;30.88;;;;;;;9.13;76.93;102626.69;4964255;28;20627;-72
2022/03/02 09:43:00;;;;;;;44.80;29.80;;;;;;;9.39;73.63;102633.88;4949793;28;20050;-72
2022/03/02 09:45:28;;;;;;;45.33;31.77;;;;;;;8.86;80.72;102632.22;4961009;28;20034;-72
2022/03/02 09:47:56;;;;;;;43.63;29.98;;;;;;;8.64;81.31;102620.16;4943243;28;20042;-72
2022/03/02 09:50:33;;;;;;;45.72;30.67;;;;;;;8.55;81.01;102624.59;4961373;28;20048;-73
2022/03/02 09:53:07;;;;;;;47.80;32.45;;;;;;;8.85;86.46;102620.63;4929871;28;20046;-74
2022/03/02 09:55:35;;;;;;;47.28;31.40;;;;;;;9.03;90.91;102616.03;4948860;28;20061;-73
2022/03/02 09:58:01;;;;;;;42.15;30.55;;;;;;;9.11;85.37;102612.53;4943870;28;20439;-74
2022/03/02 10:00:28;;;;;;;45.47;30.85;;;;;;;9.17;82.15;102611.91;4940448;28;20054;-73
2022/03/02 10:02:56;;;;;;;43.05;30.58;;;;;;;9.31;76.64;102603.25;4959464;28;20038;-73
2022/03/02 10:05:33;;;;;;;45.72;30.63;;;;;;;9.30;80.62;102601.56;4943789;28;20042;-73
2022/03/02 10:08:04;;;;;;;41.55;29.90;;;;;;;9.53;78.51;102599.09;4958365;28;20041;-73
2022/03/02 10:10:37;;;;;;;44.08;30.45;;;;;;;9.37;77.05;102596.38;4954759;28;20030;-73
2022/03/02 10:13:03;;;;;;;;;;;;;;;9.37;74.09;102593.69;4936396;28;20054;-74
2022/03/02 10:15:29;;;;;;;40.05;28.85;;;;;;;9.53;72.00;102587.50;4959374;28;20288;-74
2022/03/02 10:17:58;;;;;;;43.65;30.08;;;;;;;10.08;72.07;102594.19;4924221;28;20055;-73
2022/03/02 10:20:26;;;;;;;44.90;30.42;;;;;;;10.06;69.51;102588.97;4959734;28;20034;-73
2022/03/02 10:22:57;;;;;;;44.78;30.42;;;;;;;10.24;69.46;102584.25;4944655;28;20399;-73
2022/03/02 10:26:01;;;;;;;44.50;30.23;;;;;;;10.83;66.16;102588.63;4952694;28;20046;-73
2022/03/02 10:28:45;;;;;;;41.63;30.17;;;;;;;11.14;61.54;102586.00;4961746;28;20034;-73
2022/03/02 10:31:36;;;;;;;44.15;28.35;;;;;;;11.62;59.74;102584.94;4953206;28;20577;-72
2022/03/02 10:34:24;;;;;;;39.40;28.00;;;;;;;11.46;59.12;102590.41;4961275;28;20041;-72
2022/03/02 10:37:08;;;;;;;40.85;30.80;;;;;;;11.12;60.64;102583.47;4943950;28;20428;-72
2022/03/02 10:39:51;;;;;;;40.22;29.35;;;;;;;11.90;57.66;102596.13;4944561;28;20043;-72
2022/03/02 10:42:32;;;;;;;39.03;28.17;;;;;;;11.35;58.54;102588.97;4943480;28;20073;-72
2022/03/02 10:45:14;;;;;;;43.67;29.00;;;;;;;11.35;59.77;102583.56;4958465;28;20123;-72
2022/03/02 10:47:48;;;;;;;39.38;28.20;;;;;;;11.25;60.40;102590.19;4943910;28;20449;-72
2022/03/02 10:50:14;;;;;;;41.95;29.15;;;;;;;11.12;59.89;102588.88;4959572;28;20156;-73
2022/03/02 10:52:40;;;;;;;40.97;28.70;;;;;;;11.69;58.00;102585.94;4957651;28;20037;-73
2022/03/02 10:55:10;;;;;;;40.35;27.83;;;;;;;11.83;56.29;102586.16;4947193;28;22455;-73
2022/03/02 10:57:36;;;;;;;40.00;28.40;;;;;;;11.59;56.21;102590.69;4963550;28;20037;-73
2022/03/02 11:00:14;;;;;;;42.58;29.55;;;;;;;11.94;58.12;102586.63;4954306;28;20060;-73
2022/03/02 11:02:46;;;;;;;40.90;30.70;;;;;;;12.14;55.04;102587.00;4967321;28;20025;-73
2022/03/02 11:05:13;;;;;;;41.05;29.55;;;;;;;11.27;57.40;102574.66;4956154;28;20037;-74
2022/03/02 11:07:40;;;;;;;36.72;26.80;;;;;;;12.34;55.03;102590.03;4971702;28;20051;-74